UUYY 160830Z 20002MPS 150V220 9999 SCT040 25/15 Q1019 R18/61D NOSIG RMK QFE755/1007
QNH:(hPa/inHg/mmHg)1019 / 30.09 / 764
QFE:(hPa/inHg/mmHg)1006 / 29.72 / 755
Temperature25
Dew Point15
Visibility> 10000
Weather
Cloud CoverSCT (4000);
Transition Height3000 m./10200 ft.
Transition LevelFL110
SQUAWK